Time;durP1;ratioP1;P1;durP2;ratioP2;P2;SDS_P1;SDS_P2;PMS_P1;PMS_P2;Temp;Humidity;BMP_temperature;BMP_pressure;BME280_temperature;BME280_humidity;BME280_pressure;Samples;Min_cycle;Max_cycle;Signal;HPM_P1;HPM_P2
2023/05/12 00:02:24;;;;;;;2.15;2.13;;;10.00;86.30;;;;;;6006629;23;20793;-76
2023/05/12 00:04:50;;;;;;;2.17;2.13;;;10.00;85.80;;;;;;6006091;23;20605;-78
2023/05/12 00:07:16;;;;;;;1.55;1.55;;;10.00;85.80;;;;;;6007182;23;20157;-78
2023/05/12 00:09:42;;;;;;;2.08;1.95;;;10.00;85.80;;;;;;6006784;23;20159;-77
2023/05/12 00:12:08;;;;;;;2.17;1.85;;;10.00;85.80;;;;;;6004980;23;20256;-78
2023/05/12 00:14:35;;;;;;;1.67;1.58;;;10.00;86.00;;;;;;6007144;23;20180;-77
2023/05/12 00:17:03;;;;;;;4.35;2.10;;;10.00;85.60;;;;;;6004526;23;20301;-78
2023/05/12 00:19:29;;;;;;;2.03;1.90;;;9.90;85.60;;;;;;6006776;23;20656;-77
2023/05/12 00:21:55;;;;;;;1.77;1.65;;;9.90;85.70;;;;;;6006685;23;20148;-77
2023/05/12 00:24:21;;;;;;;1.98;1.88;;;10.00;85.30;;;;;;6006910;23;20231;-77
2023/05/12 00:26:47;;;;;;;2.08;1.98;;;10.00;85.60;;;;;;6006217;23;20231;-77
2023/05/12 00:29:12;;;;;;;5.05;1.67;;;9.90;85.70;;;;;;6007109;23;20157;-79
2023/05/12 00:31:38;;;;;;;1.77;1.77;;;9.90;85.80;;;;;;6006638;23;20557;-79
2023/05/12 00:34:03;;;;;;;3.38;2.10;;;9.80;86.10;;;;;;6007297;23;20149;-77
2023/05/12 00:36:29;;;;;;;1.93;1.83;;;9.80;86.10;;;;;;6006978;23;20180;-77
2023/05/12 00:38:55;;;;;;;1.67;1.65;;;9.80;85.90;;;;;;6007126;23;20231;-77
2023/05/12 00:41:21;;;;;;;7.43;2.28;;;9.90;86.00;;;;;;6006058;23;20156;-77
2023/05/12 00:43:47;;;;;;;2.00;2.00;;;9.80;86.20;;;;;;6007118;23;20152;-78
2023/05/12 00:46:13;;;;;;;1.77;1.77;;;9.80;86.50;;;;;;6004752;23;20171;-78
2023/05/12 00:48:39;;;;;;;2.17;1.93;;;9.70;87.80;;;;;;6007291;23;20164;-79
2023/05/12 00:51:05;;;;;;;2.30;1.85;;;9.70;88.10;;;;;;6004788;23;20247;-78
2023/05/12 00:53:31;;;;;;;1.80;1.73;;;9.60;88.70;;;;;;6006383;23;20180;-78
2023/05/12 00:55:57;;;;;;;2.22;1.90;;;9.50;88.70;;;;;;6005890;23;20152;-78
2023/05/12 00:58:23;;;;;;;1.92;1.83;;;9.50;88.60;;;;;;6006478;23;20160;-78
2023/05/12 01:00:49;;;;;;;2.43;2.27;;;9.50;89.30;;;;;;6006145;23;20155;-78
2023/05/12 01:03:16;;;;;;;2.15;2.05;;;9.50;89.30;;;;;;6006935;23;20513;-77
2023/05/12 01:06:04;;;;;;;2.92;2.17;;;9.40;90.00;;;;;;6006514;23;20209;-78
2023/05/12 01:08:31;;;;;;;2.17;1.70;;;9.30;91.30;;;;;;6006690;23;20149;-77
2023/05/12 01:10:57;;;;;;;1.83;1.73;;;9.30;91.30;;;;;;6006233;23;20157;-78
2023/05/12 01:13:22;;;;;;;1.50;1.50;;;9.20;91.50;;;;;;6006551;23;20235;-79
2023/05/12 01:15:51;;;;;;;2.13;2.03;;;9.20;91.80;;;;;;6006346;23;20160;-77
2023/05/12 01:18:19;;;;;;;1.50;1.40;;;9.10;92.00;;;;;;6006236;23;20188;-78
2023/05/12 01:20:46;;;;;;;1.90;1.90;;;9.10;92.80;;;;;;6006162;23;20215;-79
2023/05/12 01:23:15;;;;;;;1.33;1.33;;;9.00;92.70;;;;;;6006141;23;20203;-78
2023/05/12 01:25:43;;;;;;;1.52;1.50;;;8.90;92.20;;;;;;6006354;23;20152;-78
2023/05/12 01:28:09;;;;;;;1.50;1.50;;;8.90;92.80;;;;;;6005772;23;20204;-78
2023/05/12 01:30:37;;;;;;;1.45;1.45;;;8.80;93.10;;;;;;6006825;23;20264;-78
2023/05/12 01:33:03;;;;;;;1.60;1.50;;;8.70;93.50;;;;;;6006442;23;20539;-79
2023/05/12 01:35:29;;;;;;;1.23;1.20;;;8.60;94.00;;;;;;6006096;23;20232;-77
2023/05/12 01:37:54;;;;;;;1.17;1.10;;;8.50;94.10;;;;;;6005710;23;20181;-78
2023/05/12 01:40:20;;;;;;;1.60;1.58;;;8.60;94.10;;;;;;6005848;23;20185;-78
2023/05/12 01:42:46;;;;;;;1.30;1.30;;;8.50;94.40;;;;;;6005519;23;20568;-77
2023/05/12 01:45:11;;;;;;;1.43;1.40;;;8.50;94.60;;;;;;6006482;23;20213;-77
2023/05/12 01:47:37;;;;;;;2.93;1.33;;;8.50;94.50;;;;;;6004451;23;20178;-79
2023/05/12 01:50:03;;;;;;;1.20;1.10;;;8.40;94.80;;;;;;6005554;23;20564;-78
2023/05/12 01:52:29;;;;;;;0.93;0.93;;;8.40;95.20;;;;;;6006087;23;20156;-78
2023/05/12 01:54:55;;;;;;;1.53;1.53;;;;;;;;;;6005439;23;20240;-77
2023/05/12 01:57:20;;;;;;;1.50;1.40;;;8.40;95.30;;;;;;6004824;23;20192;-77
2023/05/12 01:59:46;;;;;;;1.90;1.80;;;;;;;;;;6005996;23;20235;-78
2023/05/12 02:02:12;;;;;;;1.57;1.40;;;8.30;95.40;;;;;;6006036;23;20179;-78
2023/05/12 02:04:37;;;;;;;1.48;1.10;;;8.30;95.40;;;;;;6006101;23;20149;-78
2023/05/12 02:07:03;;;;;;;2.40;1.30;;;8.30;95.40;;;;;;6007564;23;20188;-78
2023/05/12 02:09:29;;;;;;;1.17;1.17;;;8.30;95.70;;;;;;6007873;23;20148;-77
2023/05/12 02:11:55;;;;;;;1.63;1.53;;;8.30;95.90;;;;;;6007668;23;20153;-78
2023/05/12 02:14:21;;;;;;;1.77;1.67;;;8.20;96.30;;;;;;6008059;23;20216;-78
2023/05/12 02:16:51;;;;;;;1.20;1.10;;;8.20;96.40;;;;;;6007351;23;20184;-78
2023/05/12 02:19:18;;;;;;;1.30;1.30;;;8.10;96.30;;;;;;6008350;23;20211;-77
2023/05/12 02:21:45;;;;;;;1.23;1.20;;;8.10;96.20;;;;;;6008011;23;20215;-78
2023/05/12 02:24:10;;;;;;;0.90;0.90;;;8.10;96.30;;;;;;6008187;23;20620;-78
2023/05/12 02:26:36;;;;;;;1.20;0.87;;;8.10;96.10;;;;;;6007932;23;20157;-76
2023/05/12 02:29:02;;;;;;;1.20;1.10;;;8.10;96.50;;;;;;6007810;23;21005;-77
2023/05/12 02:31:28;;;;;;;0.97;0.97;;;;;;;;;;6007993;23;20184;-77
2023/05/12 02:33:53;;;;;;;0.87;0.87;;;8.10;97.10;;;;;;6007605;23;20157;-77
2023/05/12 02:36:19;;;;;;;1.23;1.13;;;8.10;96.90;;;;;;6007506;23;20637;-77
2023/05/12 02:38:44;;;;;;;1.43;1.37;;;8.10;97.10;;;;;;6007395;23;20149;-77
2023/05/12 02:41:10;;;;;;;0.80;0.80;;;8.10;97.50;;;;;;6007580;23;20164;-76
2023/05/12 02:43:36;;;;;;;1.40;1.30;;;8.20;97.50;;;;;;6007635;23;20163;-77
2023/05/12 02:46:01;;;;;;;0.80;0.80;;;8.20;97.50;;;;;;6007509;23;20208;-77
2023/05/12 02:48:27;;;;;;;1.53;0.97;;;8.20;97.50;;;;;;6007989;23;20176;-78
2023/05/12 02:50:53;;;;;;;0.80;0.80;;;8.20;98.30;;;;;;6007560;23;20167;-78
2023/05/12 02:53:18;;;;;;;0.70;0.70;;;8.20;98.50;;;;;;6005788;23;20160;-78
2023/05/12 02:55:44;;;;;;;0.70;0.70;;;8.20;98.20;;;;;;6006014;23;20247;-77
2023/05/12 02:58:10;;;;;;;0.57;0.57;;;8.20;97.90;;;;;;6007379;23;20192;-78
2023/05/12 03:00:36;;;;;;;0.77;0.67;;;8.20;97.80;;;;;;6007824;23;20159;-78
2023/05/12 03:03:02;;;;;;;0.50;0.50;;;8.20;97.70;;;;;;6007171;23;20157;-77
2023/05/12 03:05:27;;;;;;;0.70;0.70;;;8.20;97.20;;;;;;6007718;23;20156;-78
2023/05/12 03:07:53;;;;;;;0.53;0.53;;;8.20;97.40;;;;;;6007586;23;20160;-77
2023/05/12 03:10:19;;;;;;;0.93;0.83;;;8.20;97.80;;;;;;6005447;23;20240;-77
2023/05/12 03:12:44;;;;;;;1.17;1.07;;;8.20;97.30;;;;;;6007365;23;20213;-77
2023/05/12 03:15:10;;;;;;;0.80;0.80;;;8.20;97.20;;;;;;6007491;23;20160;-77
2023/05/12 03:17:36;;;;;;;0.97;0.80;;;8.10;97.70;;;;;;6006888;23;20532;-77
2023/05/12 03:20:03;;;;;;;1.23;1.13;;;8.10;97.50;;;;;;6006212;23;20167;-77
2023/05/12 03:22:29;;;;;;;0.90;0.90;;;8.10;97.30;;;;;;6007496;23;20153;-77
2023/05/12 03:24:55;;;;;;;4.37;1.00;;;8.10;97.70;;;;;;6007120;23;20171;-78
2023/05/12 03:27:20;;;;;;;1.37;1.17;;;8.00;97.80;;;;;;6007115;23;20605;-81
2023/05/12 03:29:46;;;;;;;1.13;1.13;;;8.00;98.30;;;;;;6007308;23;20152;-80
2023/05/12 03:32:12;;;;;;;0.80;0.80;;;8.00;98.40;;;;;;6007538;23;20167;-80
2023/05/12 03:34:38;;;;;;;1.10;0.93;;;8.00;97.90;;;;;;6007152;23;20188;-79
2023/05/12 03:37:04;;;;;;;0.83;0.83;;;8.00;97.80;;;;;;6006580;23;20252;-80
2023/05/12 03:39:30;;;;;;;1.53;1.10;;;8.00;97.50;;;;;;6006465;23;20609;-80
2023/05/12 03:41:55;;;;;;;2.10;1.10;;;8.00;97.50;;;;;;6005513;23;20165;-79
2023/05/12 03:44:21;;;;;;;0.93;0.83;;;8.00;97.80;;;;;;6007251;23;20159;-80
2023/05/12 03:46:47;;;;;;;0.73;0.73;;;8.00;97.90;;;;;;6006664;23;20179;-81
2023/05/12 03:49:12;;;;;;;0.83;0.83;;;8.00;98.00;;;;;;6005704;23;20516;-79
2023/05/12 03:51:38;;;;;;;0.83;0.83;;;8.00;97.70;;;;;;6006886;23;20163;-79
2023/05/12 03:54:04;;;;;;;0.80;0.80;;;8.00;98.10;;;;;;6006993;23;20184;-80
2023/05/12 03:56:29;;;;;;;0.90;0.90;;;8.00;97.70;;;;;;6004907;23;20192;-80
2023/05/12 03:58:56;;;;;;;1.27;1.07;;;8.00;97.20;;;;;;6006653;23;20715;-80
2023/05/12 04:01:21;;;;;;;0.90;0.90;;;8.10;97.40;;;;;;6007048;23;20160;-80
2023/05/12 04:03:47;;;;;;;0.93;0.93;;;8.10;97.30;;;;;;6007397;23;20152;-81
2023/05/12 04:06:13;;;;;;;0.80;0.80;;;8.10;97.50;;;;;;6007451;23;20153;-81
2023/05/12 04:08:39;;;;;;;0.93;0.93;;;8.10;97.70;;;;;;6005473;23;20160;-79
2023/05/12 04:11:05;;;;;;;1.33;1.30;;;8.10;97.80;;;;;;6006165;23;20191;-79
2023/05/12 04:13:31;;;;;;;0.83;0.83;;;8.10;97.20;;;;;;6005795;23;20623;-77
2023/05/12 04:15:58;;;;;;;1.23;0.90;;;8.20;97.30;;;;;;6006639;23;20502;-78
2023/05/12 04:18:25;;;;;;;1.30;1.20;;;8.20;97.40;;;;;;6006885;23;20632;-77
2023/05/12 04:20:51;;;;;;;1.10;1.10;;;8.20;97.10;;;;;;6007390;23;20248;-78
2023/05/12 04:23:17;;;;;;;0.70;0.70;;;8.20;97.10;;;;;;6006005;23;20156;-77
2023/05/12 04:25:42;;;;;;;0.90;0.90;;;8.30;97.20;;;;;;6005702;23;20194;-78
2023/05/12 04:28:09;;;;;;;0.70;0.63;;;8.30;97.20;;;;;;6006558;23;20520;-77
2023/05/12 04:30:35;;;;;;;0.83;0.83;;;8.30;97.40;;;;;;6006524;23;20156;-79
2023/05/12 04:33:01;;;;;;;0.77;0.77;;;8.30;97.40;;;;;;6007224;23;20205;-77
2023/05/12 04:35:27;;;;;;;0.97;0.97;;;8.30;97.80;;;;;;6006771;23;20149;-78
2023/05/12 04:37:53;;;;;;;1.43;1.20;;;8.30;97.80;;;;;;6006785;23;20185;-77
2023/05/12 04:40:19;;;;;;;1.13;1.03;;;8.40;97.60;;;;;;6004706;23;20609;-77
2023/05/12 04:42:44;;;;;;;1.17;1.03;;;8.40;97.60;;;;;;6007529;23;20748;-77
2023/05/12 04:45:10;;;;;;;1.50;1.40;;;8.40;97.20;;;;;;6007119;23;20179;-79
2023/05/12 04:47:36;;;;;;;1.40;1.17;;;8.50;97.20;;;;;;6007282;23;20749;-78
2023/05/12 04:50:03;;;;;;;1.07;1.07;;;8.50;97.00;;;;;;6007433;23;20159;-78
2023/05/12 04:52:29;;;;;;;3.40;0.80;;;8.50;96.90;;;;;;6007421;23;20184;-77
2023/05/12 04:54:55;;;;;;;1.13;1.13;;;8.50;97.00;;;;;;6007639;23;20184;-81
2023/05/12 04:57:20;;;;;;;1.17;1.00;;;8.60;96.90;;;;;;6009986;23;20184;-78
2023/05/12 04:59:46;;;;;;;1.40;1.30;;;8.60;96.40;;;;;;6007264;23;20174;-77
2023/05/12 05:02:12;;;;;;;3.53;1.33;;;8.60;96.40;;;;;;6003907;23;20172;-77
2023/05/12 05:04:37;;;;;;;0.87;0.87;;;8.60;96.40;;;;;;6006646;23;20331;-78
2023/05/12 05:07:03;;;;;;;0.90;0.90;;;8.60;96.50;;;;;;6004928;23;20160;-77
2023/05/12 05:09:29;;;;;;;4.90;1.37;;;8.70;96.70;;;;;;6005403;23;20174;-77
2023/05/12 05:11:55;;;;;;;4.17;1.10;;;8.70;96.60;;;;;;6003275;23;20276;-78
2023/05/12 05:14:20;;;;;;;0.90;0.80;;;8.70;96.50;;;;;;6004890;23;20240;-79
2023/05/12 05:16:47;;;;;;;1.10;1.00;;;8.70;96.50;;;;;;6005002;23;20220;-77
2023/05/12 05:19:13;;;;;;;1.00;0.87;;;8.70;96.40;;;;;;6005033;23;20161;-77
2023/05/12 05:21:39;;;;;;;1.00;1.00;;;8.70;96.60;;;;;;6004875;23;20219;-78
2023/05/12 05:24:05;;;;;;;1.20;1.10;;;8.80;96.20;;;;;;6004639;23;20156;-77
2023/05/12 05:26:30;;;;;;;1.07;1.07;;;8.80;96.40;;;;;;6004439;23;20160;-78
2023/05/12 05:28:56;;;;;;;1.20;1.10;;;8.90;96.30;;;;;;6006510;23;20148;-78
2023/05/12 05:31:22;;;;;;;0.93;0.93;;;8.90;96.40;;;;;;6006841;23;20157;-78
2023/05/12 05:33:48;;;;;;;1.00;1.00;;;9.00;96.40;;;;;;6006803;23;20757;-77
2023/05/12 05:36:14;;;;;;;1.50;1.40;;;9.00;96.40;;;;;;6006380;23;20148;-78
2023/05/12 05:38:39;;;;;;;1.10;0.80;;;9.00;96.20;;;;;;6005194;23;20160;-77
2023/05/12 05:41:05;;;;;;;1.13;1.08;;;9.10;95.90;;;;;;6006494;23;20498;-78
2023/05/12 05:43:31;;;;;;;1.08;1.08;;;9.10;95.60;;;;;;6006549;23;20661;-80
2023/05/12 05:45:57;;;;;;;1.30;1.10;;;9.10;95.60;;;;;;6006376;23;20228;-78
2023/05/12 05:48:23;;;;;;;1.10;1.07;;;9.20;95.40;;;;;;6007105;23;20164;-78
2023/05/12 05:50:50;;;;;;;1.10;1.10;;;9.20;95.60;;;;;;6006455;23;20227;-79
2023/05/12 05:53:18;;;;;;;2.87;1.47;;;9.30;95.40;;;;;;6005374;23;20647;-79
2023/05/12 05:55:44;;;;;;;1.00;1.00;;;9.30;95.50;;;;;;6006418;23;20276;-78
2023/05/12 05:58:10;;;;;;;1.38;1.10;;;9.40;95.40;;;;;;6004743;23;20200;-78
2023/05/12 06:00:35;;;;;;;1.43;1.40;;;9.40;95.20;;;;;;6004915;23;20168;-78
2023/05/12 06:03:01;;;;;;;4.10;1.50;;;9.50;95.10;;;;;;6006417;23;20612;-78
2023/05/12 06:05:27;;;;;;;1.40;1.30;;;9.50;95.00;;;;;;6006446;23;20153;-79
2023/05/12 06:07:53;;;;;;;1.50;1.40;;;9.50;94.80;;;;;;6005808;23;20165;-78
2023/05/12 06:10:19;;;;;;;1.40;1.17;;;9.60;94.20;;;;;;6008148;23;20591;-79
2023/05/12 06:12:44;;;;;;;1.33;1.33;;;9.60;94.20;;;;;;6008203;23;20159;-79
2023/05/12 06:15:10;;;;;;;1.87;1.77;;;9.70;93.80;;;;;;6007676;23;20184;-81
2023/05/12 06:17:37;;;;;;;1.20;1.20;;;9.70;93.80;;;;;;6006094;23;20283;-81
2023/05/12 06:20:04;;;;;;;1.45;1.10;;;9.70;94.10;;;;;;6005508;23;20601;-81
2023/05/12 06:22:30;;;;;;;2.58;1.40;;;9.70;93.60;;;;;;6007470;23;20184;-81
2023/05/12 06:24:55;;;;;;;2.08;1.65;;;9.70;93.60;;;;;;6008797;23;20156;-81
2023/05/12 06:27:21;;;;;;;2.23;1.37;;;9.70;93.40;;;;;;6008086;23;20160;-80
2023/05/12 06:29:47;;;;;;;1.88;1.73;;;9.80;93.40;;;;;;6006896;23;20522;-80
2023/05/12 06:32:13;;;;;;;1.13;1.08;;;9.80;93.70;;;;;;6006827;23;20149;-80
2023/05/12 06:34:39;;;;;;;1.48;1.27;;;9.80;93.30;;;;;;6002781;23;20257;-82
2023/05/12 06:37:05;;;;;;;1.35;1.25;;;9.90;93.20;;;;;;6005549;23;20259;-81
2023/05/12 06:39:31;;;;;;;1.52;1.42;;;10.00;93.20;;;;;;6004702;23;20502;-81
2023/05/12 06:41:56;;;;;;;1.42;1.33;;;10.00;93.10;;;;;;6005156;23;20152;-80
2023/05/12 06:44:22;;;;;;;1.05;1.00;;;10.00;92.90;;;;;;6003863;23;20224;-80
2023/05/12 06:46:48;;;;;;;1.23;1.00;;;10.10;92.60;;;;;;6005618;23;20168;-81
2023/05/12 06:49:14;;;;;;;1.35;1.35;;;10.20;92.00;;;;;;6005940;23;20141;-81
2023/05/12 06:51:39;;;;;;;1.40;1.40;;;10.20;91.60;;;;;;6005002;23;20153;-82
2023/05/12 06:54:05;;;;;;;2.80;1.63;;;10.20;91.50;;;;;;6006441;23;20180;-81
2023/05/12 06:56:30;;;;;;;2.97;1.83;;;10.20;91.50;;;;;;6006907;23;20247;-81
2023/05/12 06:59:03;;;;;;;2.38;2.00;;;10.20;91.60;;;;;;6007731;23;20149;-80
2023/05/12 07:01:30;;;;;;;2.00;1.90;;;10.20;91.00;;;;;;6004857;23;20156;-81
2023/05/12 07:03:57;;;;;;;1.67;1.60;;;10.20;90.80;;;;;;6008212;23;20166;-80
2023/05/12 07:06:23;;;;;;;1.73;1.45;;;10.20;91.00;;;;;;6005976;23;20579;-80
2023/05/12 07:08:49;;;;;;;1.80;1.70;;;10.30;90.20;;;;;;6008310;23;20219;-80
2023/05/12 07:11:19;;;;;;;1.88;1.77;;;10.30;90.00;;;;;;6004852;23;20580;-81
2023/05/12 07:13:48;;;;;;;1.75;1.65;;;10.30;90.40;;;;;;6007785;23;20156;-81
2023/05/12 07:16:15;;;;;;;1.77;1.67;;;10.20;90.10;;;;;;6006918;23;20163;-81
2023/05/12 07:18:41;;;;;;;2.63;2.42;;;10.30;90.30;;;;;;6006478;23;20160;-79
2023/05/12 07:21:07;;;;;;;1.80;1.73;;;10.30;90.10;;;;;;6005822;23;20561;-81
2023/05/12 07:23:33;;;;;;;1.92;1.83;;;10.30;90.00;;;;;;6007188;23;20153;-81
2023/05/12 07:26:01;;;;;;;1.83;1.83;;;10.30;90.00;;;;;;6005019;23;20275;-82
2023/05/12 07:28:31;;;;;;;1.83;1.73;;;10.30;90.40;;;;;;6007350;23;20160;-81
2023/05/12 07:30:57;;;;;;;3.10;2.67;;;10.40;91.30;;;;;;6006452;23;20601;-81
2023/05/12 07:33:23;;;;;;;1.95;1.85;;;10.40;90.70;;;;;;6007149;23;20169;-81
2023/05/12 07:35:48;;;;;;;1.88;1.83;;;10.40;89.90;;;;;;6006477;23;20183;-80
2023/05/12 07:38:14;;;;;;;2.50;2.40;;;10.40;90.10;;;;;;6007195;23;20267;-81
2023/05/12 07:40:40;;;;;;;2.15;2.05;;;10.40;90.80;;;;;;6005290;23;20212;-80
2023/05/12 07:43:06;;;;;;;2.40;1.90;;;10.50;90.60;;;;;;6006288;23;20197;-81
2023/05/12 07:45:32;;;;;;;1.65;1.60;;;10.60;90.50;;;;;;6004730;23;20251;-80
2023/05/12 07:47:58;;;;;;;1.58;1.48;;;10.60;91.20;;;;;;6007074;23;20649;-81
2023/05/12 07:50:23;;;;;;;2.10;2.00;;;10.70;91.30;;;;;;6006889;23;20505;-82
2023/05/12 07:52:51;;;;;;;1.85;1.58;;;10.80;91.30;;;;;;6005392;23;20174;-80
2023/05/12 07:55:18;;;;;;;4.10;2.10;;;10.90;90.80;;;;;;6005368;23;20164;-81
2023/05/12 07:57:43;;;;;;;3.72;2.00;;;11.00;90.70;;;;;;6005260;23;20609;-80
2023/05/12 08:00:10;;;;;;;1.70;1.60;;;11.20;90.70;;;;;;6006970;23;20176;-80
2023/05/12 08:02:39;;;;;;;1.98;1.88;;;11.30;90.30;;;;;;6006207;23;20153;-80
2023/05/12 08:05:06;;;;;;;2.45;1.65;;;11.50;89.10;;;;;;6004907;23;20219;-80
2023/05/12 08:07:31;;;;;;;2.17;2.08;;;11.60;89.10;;;;;;6006722;23;20231;-81
2023/05/12 08:09:57;;;;;;;1.83;1.63;;;11.80;88.70;;;;;;6004301;23;20188;-80
2023/05/12 08:12:23;;;;;;;3.25;1.95;;;12.00;88.30;;;;;;6004606;23;20157;-80
2023/05/12 08:14:48;;;;;;;1.98;1.92;;;12.20;87.40;;;;;;6007014;23;20152;-80
2023/05/12 08:17:14;;;;;;;2.25;2.15;;;12.30;85.60;;;;;;6006503;23;20203;-81
2023/05/12 08:19:40;;;;;;;2.67;2.50;;;12.40;85.40;;;;;;6006915;23;20621;-80
2023/05/12 08:22:05;;;;;;;2.40;2.20;;;12.60;86.00;;;;;;6006184;23;20415;-80
2023/05/12 08:24:31;;;;;;;2.13;2.03;;;12.70;85.30;;;;;;6005034;23;20149;-81
2023/05/12 08:26:56;;;;;;;2.15;2.05;;;12.90;84.70;;;;;;6005613;23;20153;-81
2023/05/12 08:29:22;;;;;;;2.30;2.20;;;13.00;84.30;;;;;;6005852;23;20582;-81
2023/05/12 08:34:32;;;;;;;3.00;2.80;;;13.30;82.40;;;;;;6006167;23;20207;-81
2023/05/12 08:36:58;;;;;;;2.08;1.98;;;13.40;81.40;;;;;;6006422;23;20196;-81
2023/05/12 08:39:23;;;;;;;1.85;1.85;;;13.40;80.80;;;;;;6005379;23;20258;-80
2023/05/12 08:42:08;;;;;;;2.17;1.95;;;13.30;80.70;;;;;;6005528;23;20164;-81
2023/05/12 08:44:35;;;;;;;2.00;2.00;;;13.30;81.60;;;;;;6006515;23;20136;-80
2023/05/12 08:47:04;;;;;;;1.70;1.70;;;13.40;81.90;;;;;;6006203;23;20172;-80
2023/05/12 08:49:33;;;;;;;1.80;1.70;;;13.40;81.00;;;;;;6005010;23;20161;-80
2023/05/12 08:52:01;;;;;;;3.95;2.63;;;13.40;80.30;;;;;;6006315;23;20625;-80
2023/05/12 08:54:27;;;;;;;2.40;2.30;;;13.40;81.00;;;;;;6005085;23;20209;-81
2023/05/12 08:56:54;;;;;;;3.42;2.60;;;13.40;80.80;;;;;;6005990;23;20188;-80
2023/05/12 08:59:19;;;;;;;3.40;2.33;;;13.30;81.10;;;;;;6005700;23;20513;-80
2023/05/12 09:01:47;;;;;;;2.03;1.98;;;13.30;80.80;;;;;;6006124;23;20153;-80
2023/05/12 09:04:16;;;;;;;2.47;2.38;;;13.30;80.30;;;;;;6005971;23;20232;-79
2023/05/12 09:06:43;;;;;;;2.20;2.10;;;13.40;80.20;;;;;;6004690;23;20164;-80
2023/05/12 09:09:09;;;;;;;3.03;1.98;;;13.50;80.50;;;;;;6003568;23;20587;-80
2023/05/12 09:11:35;;;;;;;2.00;1.90;;;13.50;80.80;;;;;;6006180;23;20243;-79
2023/05/12 09:14:08;;;;;;;1.75;1.65;;;13.50;80.20;;;;;;6005724;23;20628;-81
2023/05/12 09:16:41;;;;;;;1.88;1.77;;;13.50;79.70;;;;;;6004575;23;20668;-80
2023/05/12 09:19:07;;;;;;;2.63;2.15;;;13.50;80.10;;;;;;6006233;23;20141;-79
2023/05/12 09:21:33;;;;;;;2.20;2.10;;;13.40;79.80;;;;;;6005747;23;20939;-78
2023/05/12 09:24:04;;;;;;;2.03;1.92;;;13.40;79.70;;;;;;6004685;23;20152;-80
2023/05/12 09:26:42;;;;;;;2.47;2.38;;;13.40;79.40;;;;;;6006628;23;20141;-81
2023/05/12 09:29:08;;;;;;;2.25;2.15;;;13.40;79.80;;;;;;6005658;23;20144;-81
2023/05/12 09:31:35;;;;;;;1.45;1.33;;;13.40;78.40;;;;;;6005940;23;20156;-81
2023/05/12 09:34:06;;;;;;;1.40;1.40;;;13.30;79.00;;;;;;6005031;23;20672;-83
2023/05/12 09:36:33;;;;;;;1.77;1.67;;;13.30;79.90;;;;;;6005572;23;20176;-80
2023/05/12 09:39:29;;;;;;;2.20;2.10;;;13.30;79.80;;;;;;5066804;28;20637;-81
2023/05/12 09:41:54;;;;;;;2.53;2.33;;;13.30;79.90;;;;;;5044500;28;20183;-80
2023/05/12 09:44:21;;;;;;;3.70;1.80;;;13.40;80.00;;;;;;5046929;28;20210;-79
2023/05/12 09:46:47;;;;;;;4.30;2.40;;;13.40;80.20;;;;;;5048087;28;20175;-81
2023/05/12 09:49:21;;;;;;;2.08;1.98;;;13.50;79.40;;;;;;5047843;28;20180;-81
2023/05/12 09:52:00;;;;;;;3.63;1.60;;;13.60;79.30;;;;;;5046916;28;20186;-80
2023/05/12 09:54:27;;;;;;;2.28;2.17;;;13.70;78.30;;;;;;5051548;28;20635;-81
2023/05/12 09:56:57;;;;;;;2.20;2.20;;;13.80;78.50;;;;;;5051191;28;20187;-80
2023/05/12 09:59:29;;;;;;;3.35;2.35;;;13.80;78.00;;;;;;5045073;28;20215;-80
2023/05/12 10:01:59;;;;;;;2.78;2.33;;;13.90;78.10;;;;;;5058034;28;20198;-80
2023/05/12 10:04:27;;;;;;;2.10;2.00;;;13.90;77.70;;;;;;5048586;28;20245;-80
2023/05/12 10:06:53;;;;;;;1.98;1.88;;;14.10;78.20;;;;;;5048036;28;20318;-80
2023/05/12 10:09:24;;;;;;;1.85;1.75;;;14.20;77.50;;;;;;5046087;28;20187;-81
2023/05/12 10:11:50;;;;;;;2.47;2.28;;;14.40;75.60;;;;;;5045254;28;20187;-80
2023/05/12 10:14:16;;;;;;;1.90;1.80;;;14.50;75.80;;;;;;5040827;28;20179;-80
2023/05/12 10:16:45;;;;;;;1.95;1.65;;;14.60;75.50;;;;;;5044676;28;20630;-80
2023/05/12 10:19:12;;;;;;;1.70;1.70;;;14.70;74.00;;;;;;5045056;28;20663;-80
2023/05/12 10:21:38;;;;;;;1.90;1.80;;;14.70;74.50;;;;;;5048181;28;20657;-81
2023/05/12 10:24:05;;;;;;;1.48;1.48;;;14.80;74.90;;;;;;5047059;28;20622;-81
2023/05/12 10:26:32;;;;;;;4.03;2.00;;;14.90;75.30;;;;;;5045531;28;20190;-80
2023/05/12 10:28:59;;;;;;;1.65;1.55;;;14.90;73.30;;;;;;5039909;28;20176;-80
2023/05/12 10:31:26;;;;;;;2.92;1.40;;;14.80;72.70;;;;;;5047132;28;20192;-81
2023/05/12 10:33:59;;;;;;;1.60;1.50;;;14.90;73.90;;;;;;5042896;28;20179;-79
2023/05/12 10:36:25;;;;;;;1.38;1.38;;;15.00;73.20;;;;;;5045502;28;20184;-81
2023/05/12 10:38:51;;;;;;;1.52;1.52;;;15.10;72.90;;;;;;5046438;28;20265;-79
2023/05/12 10:41:29;;;;;;;1.33;1.33;;;15.20;72.30;;;;;;5045574;28;20614;-80
2023/05/12 10:43:55;;;;;;;1.75;1.65;;;15.10;71.60;;;;;;5073855;28;20187;-80
2023/05/12 10:46:23;;;;;;;1.67;1.58;;;15.30;73.40;;;;;;5045672;28;20322;-79
2023/05/12 10:49:02;;;;;;;1.55;1.35;;;15.20;71.00;;;;;;5040499;28;20180;-81
2023/05/12 10:51:49;;;;;;;1.77;1.70;;;15.20;72.10;;;;;;5029721;28;20203;-81
2023/05/12 10:54:20;;;;;;;2.75;1.88;;;15.40;73.10;;;;;;5037819;28;20176;-81
2023/05/12 10:56:47;;;;;;;1.63;1.63;;;15.50;73.50;;;;;;5033138;28;20186;-81
2023/05/12 10:59:18;;;;;;;1.60;1.60;;;15.70;72.70;;;;;;5033583;28;20591;-80
2023/05/12 11:02:05;;;;;;;1.88;1.77;;;15.70;69.90;;;;;;5027800;28;20188;-81
2023/05/12 11:04:41;;;;;;;1.50;1.50;;;15.80;70.80;;;;;;5024824;28;20234;-81
2023/05/12 11:07:10;;;;;;;1.33;1.33;;;16.00;71.20;;;;;;5027034;28;20187;-81
2023/05/12 11:09:43;;;;;;;2.03;1.92;;;16.10;69.60;;;;;;5031624;28;20263;-81
2023/05/12 11:12:10;;;;;;;1.88;1.80;;;16.00;68.80;;;;;;5031810;28;20223;-82
2023/05/12 11:14:37;;;;;;;1.50;1.50;;;16.00;70.70;;;;;;5032508;28;20665;-81
2023/05/12 11:17:03;;;;;;;1.88;1.88;;;16.10;70.80;;;;;;5026444;28;20264;-82
2023/05/12 11:19:29;;;;;;;1.55;1.55;;;15.80;69.40;;;;;;5032599;28;20800;-80
2023/05/12 11:21:55;;;;;;;1.40;1.40;;;15.70;71.10;;;;;;5028576;28;20208;-81
2023/05/12 11:24:21;;;;;;;1.55;1.55;;;15.70;71.30;;;;;;5026213;28;20227;-81
2023/05/12 11:26:50;;;;;;;1.67;1.58;;;15.50;70.40;;;;;;5024728;28;20203;-81
2023/05/12 11:29:18;;;;;;;1.80;1.70;;;15.20;71.00;;;;;;5025267;28;20186;-81
2023/05/12 11:31:50;;;;;;;1.48;1.38;;;15.10;71.30;;;;;;5029112;28;20263;-81
2023/05/12 11:34:20;;;;;;;1.77;1.60;;;14.90;72.10;;;;;;5028862;28;20196;-81
2023/05/12 11:36:47;;;;;;;1.77;1.77;;;14.90;72.90;;;;;;5058876;28;20207;-81
2023/05/12 11:39:20;;;;;;;2.25;2.05;;;15.00;73.80;;;;;;5025291;28;20219;-81
2023/05/12 11:41:47;;;;;;;1.80;1.73;;;14.90;71.60;;;;;;5030569;28;20238;-81
2023/05/12 11:44:14;;;;;;;1.83;1.83;;;14.90;71.60;;;;;;5031465;28;20200;-81
2023/05/12 11:46:40;;;;;;;1.88;1.77;;;14.90;72.50;;;;;;5032801;28;20619;-80
2023/05/12 11:49:11;;;;;;;2.05;2.05;;;15.00;71.80;;;;;;5029623;28;20207;-80
2023/05/12 11:51:41;;;;;;;2.55;1.98;;;15.00;72.10;;;;;;5029503;28;20185;-80
2023/05/12 11:54:07;;;;;;;1.92;1.83;;;14.90;72.70;;;;;;5024991;28;20188;-80
2023/05/12 11:56:33;;;;;;;1.77;1.73;;;15.00;72.10;;;;;;5027459;28;20208;-78
2023/05/12 11:58:59;;;;;;;3.35;1.92;;;15.00;72.30;;;;;;5018024;28;20211;-79
2023/05/12 12:01:25;;;;;;;1.63;1.63;;;15.10;73.20;;;;;;5025915;28;20184;-82
2023/05/12 12:03:54;;;;;;;1.65;1.55;;;15.30;72.20;;;;;;5033829;28;20180;-80
2023/05/12 12:06:21;;;;;;;1.90;1.80;;;15.20;71.30;;;;;;5034200;28;20195;-81
2023/05/12 12:08:54;;;;;;;1.65;1.65;;;15.20;71.00;;;;;;5035050;28;20180;-80
2023/05/12 12:11:21;;;;;;;1.95;1.85;;;15.20;70.10;;;;;;5032685;28;20196;-80
2023/05/12 12:13:55;;;;;;;1.92;1.90;;;15.30;71.00;;;;;;5030636;28;20184;-81
2023/05/12 12:16:25;;;;;;;2.55;2.45;;;15.20;70.70;;;;;;5022492;28;20179;-79
2023/05/12 12:18:52;;;;;;;1.73;1.63;;;15.10;71.30;;;;;;5027714;28;20219;-79
2023/05/12 12:21:17;;;;;;;1.92;1.83;;;15.10;71.90;;;;;;5028498;28;20552;-80
2023/05/12 12:23:43;;;;;;;1.73;1.73;;;15.10;73.00;;;;;;5026314;28;20191;-80
2023/05/12 12:26:09;;;;;;;1.95;1.83;;;15.20;72.80;;;;;;5024895;28;20176;-79
2023/05/12 12:28:35;;;;;;;2.00;1.90;;;15.30;69.90;;;;;;5026914;28;20181;-81
2023/05/12 12:31:01;;;;;;;2.10;2.00;;;15.30;70.80;;;;;;5027244;28;20379;-79
2023/05/12 12:33:26;;;;;;;1.67;1.58;;;15.30;71.20;;;;;;5028782;28;20366;-79
2023/05/12 12:35:52;;;;;;;1.75;1.75;;;15.30;69.90;;;;;;5024602;28;20627;-79
2023/05/12 12:38:18;;;;;;;3.33;1.73;;;15.40;70.70;;;;;;5022039;28;20208;-80
2023/05/12 12:40:43;;;;;;;2.38;1.58;;;15.40;69.30;;;;;;5027539;28;20375;-80
2023/05/12 12:43:09;;;;;;;1.42;1.42;;;15.10;69.10;;;;;;5026698;28;20606;-80
2023/05/12 12:45:35;;;;;;;7.15;1.60;;;15.00;69.90;;;;;;5039212;28;20593;-78
2023/05/12 12:48:01;;;;;;;1.50;1.50;;;14.90;70.90;;;;;;5026031;28;20646;-78
2023/05/12 12:50:27;;;;;;;1.88;1.77;;;15.00;71.20;;;;;;5025890;28;20195;-78
2023/05/12 12:52:53;;;;;;;1.80;1.70;;;14.90;70.80;;;;;;5027631;28;20729;-76
2023/05/12 12:55:19;;;;;;;1.90;1.83;;;14.90;71.10;;;;;;5025905;28;20188;-78